createdAt,value
2022-10-02T00:00:13.400Z,4.20
2022-10-02T00:02:50.778Z,4.28
2022-10-02T00:05:36.757Z,4.93
2022-10-02T00:08:10.392Z,4.75
2022-10-02T00:10:45.962Z,5.40
2022-10-02T00:13:20.697Z,3.55
2022-10-02T00:15:49.890Z,6.28
2022-10-02T00:18:25.943Z,3.97
2022-10-02T00:21:05.821Z,5.45
2022-10-02T00:23:41.679Z,4.40
2022-10-02T00:26:24.260Z,4.55
2022-10-02T00:28:58.885Z,5.95
2022-10-02T00:31:45.766Z,3.50
2022-10-02T00:34:57.489Z,3.53
2022-10-02T00:37:51.513Z,4.05
2022-10-02T00:40:53.317Z,3.97
2022-10-02T00:43:50.994Z,3.50
2022-10-02T00:46:46.829Z,3.70
2022-10-02T00:49:23.146Z,4.70
2022-10-02T00:59:56.698Z,5.25
2022-10-02T01:05:52.167Z,4.65
2022-10-02T01:23:50.142Z,4.03
2022-10-02T02:55:44.914Z,3.97
2022-10-02T02:58:41.366Z,4.80
2022-10-02T03:01:09.512Z,3.75
2022-10-02T03:03:37.310Z,3.42
2022-10-02T03:06:31.831Z,2.85
2022-10-02T03:09:01.385Z,3.72
2022-10-02T03:11:36.562Z,3.75
2022-10-02T03:14:24.956Z,3.28
2022-10-02T03:17:04.776Z,2.17
2022-10-02T03:19:44.394Z,2.80
2022-10-02T03:22:18.182Z,2.67
2022-10-02T03:24:52.319Z,2.88
2022-10-02T03:28:04.680Z,3.45
2022-10-02T03:30:33.520Z,3.97
2022-10-02T03:33:03.373Z,3.25
2022-10-02T03:35:34.521Z,2.53
2022-10-02T03:38:09.834Z,2.65
2022-10-02T03:40:37.568Z,2.90
2022-10-02T03:43:05.420Z,2.97
2022-10-02T03:45:50.445Z,2.60
2022-10-02T03:48:19.577Z,2.30
2022-10-02T03:50:47.777Z,3.53
2022-10-02T03:53:19.011Z,3.75
2022-10-02T03:56:08.715Z,2.58
2022-10-02T03:58:40.368Z,4.75
2022-10-02T04:01:32.189Z,2.35
2022-10-02T04:04:06.552Z,3.20
2022-10-02T04:06:35.218Z,3.03
2022-10-02T04:09:10.898Z,2.70
2022-10-02T04:11:57.513Z,3.70
2022-10-02T04:14:34.721Z,2.28
2022-10-02T04:17:08.508Z,2.47
2022-10-02T04:19:45.638Z,3.22
2022-10-02T04:22:23.099Z,3.88
2022-10-02T04:24:56.601Z,3.42
2022-10-02T04:27:56.349Z,2.55
2022-10-02T04:30:24.221Z,3.17
2022-10-02T04:32:55.649Z,3.03
2022-10-02T04:35:36.888Z,3.08
2022-10-02T04:38:10.802Z,2.88
2022-10-02T04:41:11.537Z,2.30
2022-10-02T04:44:00.200Z,3.92
2022-10-02T04:46:53.360Z,2.85
2022-10-02T04:49:33.417Z,2.78
2022-10-02T04:52:23.948Z,2.38
2022-10-02T04:55:07.297Z,3.97
2022-10-02T04:57:58.508Z,2.85
2022-10-02T05:03:35.036Z,3.10
2022-10-02T05:06:29.559Z,3.08
2022-10-02T05:09:16.287Z,2.85
2022-10-02T05:11:53.249Z,2.83
2022-10-02T05:14:51.185Z,3.08
2022-10-02T05:17:43.430Z,3.53
2022-10-02T05:20:21.836Z,3.17
2022-10-02T05:23:02.665Z,3.63
2022-10-02T05:26:23.907Z,4.45
2022-10-02T05:29:16.659Z,2.88
2022-10-02T05:31:47.500Z,2.80
2022-10-02T05:34:21.651Z,3.08
2022-10-02T05:37:13.778Z,2.67
2022-10-02T05:39:53.942Z,3.45
2022-10-02T05:42:39.074Z,2.40
2022-10-02T05:45:24.785Z,3.22
2022-10-02T05:47:59.579Z,2.50
2022-10-02T05:50:35.234Z,3.40
2022-10-02T05:53:43.640Z,2.55
2022-10-02T05:56:22.720Z,2.60
2022-10-02T05:59:14.267Z,2.97
2022-10-02T06:01:47.962Z,3.97
2022-10-02T06:04:22.872Z,3.00
2022-10-02T06:06:54.315Z,3.00
2022-10-02T06:09:29.347Z,3.30
2022-10-02T06:12:30.623Z,2.78
2022-10-02T06:15:17.193Z,3.03
2022-10-02T06:17:56.764Z,4.43
2022-10-02T06:20:53.313Z,3.28
2022-10-02T06:23:47.104Z,3.30
2022-10-02T06:26:38.733Z,4.07
2022-10-02T06:29:22.589Z,3.00
2022-10-02T06:32:09.721Z,3.53
2022-10-02T06:34:37.437Z,3.00
2022-10-02T06:37:23.309Z,2.97
2022-10-02T06:40:03.145Z,3.13
2022-10-02T06:43:01.372Z,3.08
2022-10-02T06:46:07.284Z,2.55
2022-10-02T06:48:48.283Z,2.67
2022-10-02T06:51:51.308Z,2.63
2022-10-02T06:54:53.797Z,2.65
2022-10-02T06:57:50.412Z,2.63
2022-10-02T07:00:22.546Z,2.60
2022-10-02T07:03:28.775Z,4.25
2022-10-02T07:06:05.685Z,3.08
2022-10-02T07:09:07.578Z,2.83
2022-10-02T07:12:09.501Z,3.67
2022-10-02T07:14:58.852Z,3.38
2022-10-02T07:17:35.802Z,3.20
2022-10-02T07:20:09.396Z,3.22
2022-10-02T07:22:46.246Z,4.95
2022-10-02T07:25:48.289Z,3.95
2022-10-02T07:28:43.508Z,3.03
2022-10-02T07:31:32.218Z,3.05
2022-10-02T07:34:27.662Z,3.35
2022-10-02T07:37:01.326Z,3.45
2022-10-02T07:39:35.841Z,3.05
2022-10-02T07:42:23.061Z,3.83
2022-10-02T07:45:12.876Z,3.70
2022-10-02T07:48:06.665Z,3.88
2022-10-02T07:50:52.980Z,2.92
2022-10-02T07:53:47.038Z,3.47
2022-10-02T07:56:20.091Z,3.40
2022-10-02T07:58:58.972Z,3.38
2022-10-02T08:01:33.280Z,3.08
2022-10-02T08:04:18.987Z,3.38
2022-10-02T08:06:48.404Z,3.55
2022-10-02T08:09:23.370Z,3.38
2022-10-02T08:11:59.851Z,3.05
2022-10-02T08:14:32.981Z,3.85
2022-10-02T08:17:28.971Z,4.47
2022-10-02T08:20:20.099Z,3.83
2022-10-02T08:23:23.437Z,3.30
2022-10-02T08:25:54.967Z,3.67
2022-10-02T08:28:58.144Z,4.22
2022-10-02T08:31:26.308Z,4.65
2022-10-02T08:33:54.279Z,4.25
2022-10-02T08:36:44.297Z,3.50
2022-10-02T08:39:53.747Z,3.80
2022-10-02T08:42:24.967Z,3.20
2022-10-02T08:45:34.094Z,3.75
2022-10-02T08:48:55.058Z,3.30
2022-10-02T08:54:05.609Z,3.60
2022-10-02T08:57:12.786Z,4.53
2022-10-02T09:00:10.267Z,4.85
2022-10-02T09:03:12.585Z,8.98
2022-10-02T09:06:12.342Z,4.28
2022-10-02T09:09:17.319Z,4.72
2022-10-02T09:12:21.921Z,3.88
2022-10-02T09:15:23.073Z,3.50
2022-10-02T09:18:16.768Z,3.72
2022-10-02T09:20:47.093Z,3.88
2022-10-02T09:23:49.286Z,3.47
2022-10-02T09:26:36.491Z,3.58
2022-10-02T09:29:23.037Z,3.58
2022-10-02T09:32:06.929Z,3.00
2022-10-02T09:34:49.659Z,3.58
2022-10-02T09:37:45.227Z,3.88
2022-10-02T09:40:23.343Z,3.28
2022-10-02T09:42:54.050Z,6.20
2022-10-02T09:45:51.490Z,5.10
2022-10-02T09:48:47.049Z,3.88
2022-10-02T09:51:48.542Z,3.00
2022-10-02T09:54:53.901Z,3.40
2022-10-02T09:57:31.430Z,3.30
2022-10-02T10:00:17.880Z,3.53
2022-10-02T10:03:07.172Z,5.63
2022-10-02T10:06:16.888Z,5.00
2022-10-02T10:09:26.199Z,3.03
2022-10-02T10:12:16.971Z,3.15
2022-10-02T10:15:18.129Z,3.75
2022-10-02T10:18:12.285Z,2.70
2022-10-02T10:21:04.866Z,3.67
2022-10-02T10:23:51.571Z,2.38
2022-10-02T10:26:44.234Z,2.70
2022-10-02T10:29:41.358Z,2.67
2022-10-02T10:32:24.158Z,3.30
2022-10-02T10:34:58.035Z,2.45
2022-10-02T10:38:12.632Z,3.17
2022-10-02T10:41:12.773Z,2.70
2022-10-02T10:44:29.244Z,3.05
2022-10-02T10:47:32.069Z,3.50
2022-10-02T10:50:27.244Z,4.07
2022-10-02T10:53:12.976Z,3.55
2022-10-02T10:56:26.182Z,3.03
2022-10-02T10:59:42.336Z,2.92
2022-10-02T11:02:40.246Z,3.00
2022-10-02T11:05:45.860Z,3.08
2022-10-02T11:08:55.521Z,2.53
2022-10-02T11:11:51.517Z,2.75
2022-10-02T11:14:19.646Z,2.30
2022-10-02T11:17:23.211Z,2.80
2022-10-02T11:20:03.214Z,2.60
2022-10-02T11:22:40.553Z,2.58
2022-10-02T11:25:14.454Z,2.55
2022-10-02T11:28:10.250Z,3.00
2022-10-02T11:31:34.839Z,2.30
2022-10-02T11:34:19.886Z,2.85
2022-10-02T11:37:05.867Z,4.10
2022-10-02T11:40:13.284Z,2.45
2022-10-02T11:42:58.141Z,3.70
2022-10-02T11:45:59.717Z,2.55
2022-10-02T11:48:39.202Z,2.40
2022-10-02T11:51:47.714Z,2.53
2022-10-02T11:54:55.109Z,2.13
2022-10-02T11:57:48.118Z,2.42
2022-10-02T12:00:41.065Z,3.65
2022-10-02T12:03:31.487Z,2.50
2022-10-02T12:06:15.572Z,2.15
2022-10-02T12:09:06.391Z,2.83
2022-10-02T12:11:37.208Z,3.60
2022-10-02T12:14:23.715Z,2.47
2022-10-02T12:16:54.162Z,2.65
2022-10-02T12:20:23.852Z,3.05
2022-10-02T12:23:42.378Z,2.67
2022-10-02T12:27:07.079Z,2.78
2022-10-02T12:29:41.038Z,2.63
2022-10-02T12:32:30.678Z,2.42
2022-10-02T12:35:29.725Z,2.35
2022-10-02T12:37:57.379Z,2.57
2022-10-02T12:40:46.721Z,2.83
2022-10-02T12:43:36.172Z,2.90
2022-10-02T12:46:19.807Z,2.38
2022-10-02T12:49:26.511Z,2.35
2022-10-02T12:52:06.350Z,2.88
2022-10-02T12:54:34.098Z,2.30
2022-10-02T12:57:07.902Z,2.13
2022-10-02T13:00:01.778Z,2.67
2022-10-02T13:03:05.919Z,2.33
2022-10-02T13:05:58.066Z,2.13
2022-10-02T13:09:03.453Z,2.65
2022-10-02T13:11:53.665Z,2.05
2022-10-02T13:14:25.258Z,2.33
2022-10-02T13:17:21.060Z,2.17
2022-10-02T13:19:56.740Z,2.28
2022-10-02T13:22:50.519Z,2.53
2022-10-02T13:25:46.794Z,2.38
2022-10-02T13:28:29.976Z,2.30
2022-10-02T13:31:37.155Z,2.90
2022-10-02T13:34:25.829Z,2.00
2022-10-02T13:37:25.151Z,1.77
2022-10-02T13:40:38.367Z,2.47
2022-10-02T13:43:06.435Z,2.25
2022-10-02T13:46:09.194Z,1.95
2022-10-02T13:49:11.494Z,2.33
2022-10-02T13:52:03.069Z,2.25
2022-10-02T13:55:02.498Z,2.45
2022-10-02T13:57:36.040Z,2.08
2022-10-02T14:00:40.273Z,2.05
2022-10-02T14:03:35.726Z,2.17
2022-10-02T14:06:31.822Z,2.65
2022-10-02T14:09:16.686Z,2.47
2022-10-02T14:11:50.216Z,3.00
2022-10-02T14:14:24.047Z,1.95
2022-10-02T14:17:06.790Z,2.75
2022-10-02T14:19:43.942Z,2.10
2022-10-02T14:22:14.647Z,2.90
2022-10-02T14:25:17.184Z,2.40
2022-10-02T14:27:57.527Z,2.53
2022-10-02T14:30:49.490Z,1.77
2022-10-02T14:33:56.053Z,2.22
2022-10-02T14:36:37.466Z,2.97
2022-10-02T14:39:05.074Z,2.40
2022-10-02T14:41:52.175Z,3.20
2022-10-02T14:44:49.084Z,2.28
2022-10-02T14:47:42.361Z,2.00
2022-10-02T14:50:15.568Z,1.92
2022-10-02T14:53:13.413Z,2.50
2022-10-02T14:56:08.193Z,1.63
2022-10-02T14:59:18.219Z,3.67
2022-10-02T15:02:10.753Z,2.60
2022-10-02T15:04:53.989Z,2.67
2022-10-02T15:07:25.620Z,2.83
2022-10-02T15:10:13.745Z,2.30
2022-10-02T15:13:09.887Z,2.25
2022-10-02T15:16:27.061Z,3.20
2022-10-02T15:19:15.478Z,2.03
2022-10-02T15:21:58.571Z,2.72
2022-10-02T15:24:33.499Z,2.42
2022-10-02T15:27:46.044Z,2.22
2022-10-02T15:30:50.560Z,2.70
2022-10-02T15:33:43.384Z,2.47
2022-10-02T15:36:19.511Z,2.28
2022-10-02T15:39:05.105Z,2.13
2022-10-02T15:42:24.661Z,2.63
2022-10-02T15:45:04.585Z,2.90
2022-10-02T15:47:50.865Z,2.50
2022-10-02T15:51:32.984Z,2.40
2022-10-02T15:54:27.372Z,2.17
2022-10-02T15:57:14.082Z,2.40
2022-10-02T16:00:19.765Z,2.80
2022-10-02T16:02:57.439Z,2.20
2022-10-02T16:05:57.352Z,2.88
2022-10-02T16:08:57.746Z,1.90
2022-10-02T16:11:25.610Z,2.10
2022-10-02T16:14:15.345Z,1.92
2022-10-02T16:17:04.872Z,2.67
2022-10-02T16:19:50.969Z,1.85
2022-10-02T16:22:27.805Z,3.85
2022-10-02T16:25:29.514Z,2.38
2022-10-02T16:28:13.403Z,3.38
2022-10-02T16:30:56.427Z,2.13
2022-10-02T16:33:56.636Z,2.92
2022-10-02T16:36:58.551Z,2.38
2022-10-02T16:40:02.709Z,3.13
2022-10-02T16:42:38.333Z,3.65
2022-10-02T16:45:34.579Z,2.25
2022-10-02T16:48:15.210Z,2.75
2022-10-02T16:51:13.607Z,3.10
2022-10-02T16:53:54.259Z,2.50
2022-10-02T16:56:46.799Z,3.08
2022-10-02T16:59:26.865Z,3.13
2022-10-02T17:02:33.582Z,2.60
2022-10-02T17:05:50.866Z,2.88
2022-10-02T17:08:41.933Z,2.50
2022-10-02T17:11:22.353Z,2.88
2022-10-02T17:14:50.581Z,5.18
2022-10-02T17:18:01.715Z,2.55
2022-10-02T17:21:28.877Z,2.85
2022-10-02T17:24:57.255Z,2.90
2022-10-02T17:27:33.556Z,3.17
2022-10-02T17:30:31.081Z,2.47
2022-10-02T17:33:32.641Z,2.70
2022-10-02T17:36:19.647Z,3.25
2022-10-02T17:39:03.907Z,3.70
2022-10-02T17:41:57.252Z,3.17
2022-10-02T17:44:46.356Z,3.00
2022-10-02T17:47:23.855Z,3.00
2022-10-02T17:50:07.729Z,3.28
2022-10-02T17:53:16.081Z,3.75
2022-10-02T17:56:26.886Z,3.40
2022-10-02T17:59:39.057Z,2.85
2022-10-02T18:02:28.995Z,3.42
2022-10-02T18:04:59.547Z,4.20
2022-10-02T18:07:39.342Z,4.47
2022-10-02T18:10:39.744Z,4.30
2022-10-02T18:13:16.572Z,4.30
2022-10-02T18:16:14.884Z,3.70
2022-10-02T18:19:03.125Z,3.17
2022-10-02T18:21:39.407Z,3.35
2022-10-02T18:24:07.076Z,3.30
2022-10-02T18:26:56.231Z,3.50
2022-10-02T18:29:36.003Z,4.28
2022-10-02T18:32:38.139Z,5.17
2022-10-02T18:35:38.753Z,6.25
2022-10-02T18:38:27.969Z,7.53
2022-10-02T18:41:28.170Z,6.60
2022-10-02T18:44:08.379Z,6.73
2022-10-02T18:47:14.023Z,6.78
2022-10-02T18:49:55.349Z,7.18
2022-10-02T18:53:04.551Z,6.35
2022-10-02T18:55:40.490Z,7.68
2022-10-02T18:58:14.726Z,8.07
2022-10-02T19:01:15.403Z,7.03
2022-10-02T19:04:11.582Z,7.57
2022-10-02T19:06:49.992Z,6.55
2022-10-02T19:09:26.343Z,7.10
2022-10-02T19:12:01.368Z,8.13
2022-10-02T19:14:42.503Z,6.80
2022-10-02T19:17:22.821Z,6.90
2022-10-02T19:19:50.828Z,6.72
2022-10-02T19:22:32.895Z,8.02
2022-10-02T19:25:16.238Z,8.40
2022-10-02T19:27:50.494Z,6.70
2022-10-02T19:30:31.920Z,7.35
2022-10-02T19:33:08.031Z,5.88
2022-10-02T19:35:47.125Z,7.72
2022-10-02T19:38:32.373Z,7.05
2022-10-02T19:41:19.754Z,11.73
2022-10-02T19:44:03.511Z,9.10
2022-10-02T19:46:44.574Z,9.38
2022-10-02T19:49:28.671Z,8.63
2022-10-02T19:52:15.224Z,7.95
2022-10-02T19:56:11.032Z,7.22
2022-10-02T19:58:49.506Z,7.20
2022-10-02T20:01:55.677Z,8.05
2022-10-02T20:04:42.597Z,7.05
2022-10-02T20:07:19.634Z,6.43
2022-10-02T20:10:12.427Z,6.97
2022-10-02T20:13:00.172Z,7.82
2022-10-02T20:15:56.118Z,6.95
2022-10-02T20:18:24.875Z,7.28
2022-10-02T20:20:59.630Z,6.57
2022-10-02T20:23:34.868Z,7.80
2022-10-02T20:26:09.042Z,6.70
2022-10-02T20:28:48.011Z,6.65
2022-10-02T20:31:33.398Z,6.38
2022-10-02T20:34:06.390Z,6.47
2022-10-02T20:40:27.102Z,7.63
2022-10-02T20:43:20.512Z,7.03
2022-10-02T20:46:16.256Z,8.20
2022-10-02T20:49:13.503Z,7.03
2022-10-02T20:52:14.927Z,6.55
2022-10-02T20:54:55.868Z,6.18
2022-10-02T20:57:59.501Z,6.32
2022-10-02T21:00:57.326Z,7.35
2022-10-02T21:04:00.353Z,6.70
2022-10-02T21:06:46.977Z,6.47
2022-10-02T21:09:52.861Z,6.60
2022-10-02T21:13:09.242Z,7.75
2022-10-02T21:16:05.594Z,6.90
2022-10-02T21:18:52.193Z,6.35
2022-10-02T21:22:00.172Z,7.22
2022-10-02T21:24:55.546Z,6.03
2022-10-02T21:27:51.398Z,7.25
2022-10-02T21:30:22.724Z,6.00
2022-10-02T21:33:31.019Z,6.30
2022-10-02T21:36:09.756Z,6.47
2022-10-02T21:38:59.215Z,6.53
2022-10-02T21:42:01.587Z,5.82
2022-10-02T21:45:07.616Z,6.65
2022-10-02T21:48:13.947Z,6.30
2022-10-02T21:51:04.920Z,5.47
2022-10-02T21:59:48.531Z,6.63
2022-10-02T22:02:38.248Z,5.95
2022-10-02T22:05:15.440Z,5.30
2022-10-02T22:08:09.540Z,7.35
2022-10-02T22:11:04.446Z,8.90
2022-10-02T22:13:39.828Z,6.60
2022-10-02T22:16:26.863Z,6.57
2022-10-02T22:19:09.575Z,5.72
2022-10-02T22:22:15.501Z,5.80
2022-10-02T22:25:04.802Z,5.85
2022-10-02T22:27:53.142Z,6.07
2022-10-02T22:30:30.240Z,7.00
2022-10-02T22:33:23.441Z,7.68
2022-10-02T22:36:27.213Z,7.13
2022-10-02T22:39:20.388Z,5.85
2022-10-02T22:42:00.509Z,6.75
2022-10-02T22:45:06.332Z,6.03
2022-10-02T22:48:12.409Z,5.88
2022-10-02T22:50:51.461Z,7.85
2022-10-02T22:53:37.420Z,6.78
2022-10-02T22:56:36.357Z,9.85
2022-10-02T22:59:32.527Z,6.88
2022-10-02T23:02:22.283Z,6.05
2022-10-02T23:05:05.507Z,6.43
2022-10-02T23:08:16.004Z,6.47
2022-10-02T23:10:52.950Z,6.40
2022-10-02T23:13:58.974Z,6.15
2022-10-02T23:16:41.012Z,6.15
2022-10-02T23:19:15.756Z,6.35
2022-10-02T23:21:50.207Z,7.07
2022-10-02T23:24:23.511Z,6.70
2022-10-02T23:27:29.019Z,6.50
2022-10-02T23:30:05.483Z,6.82
2022-10-02T23:32:49.352Z,8.15
2022-10-02T23:35:35.981Z,7.65
2022-10-02T23:38:28.597Z,7.65
2022-10-02T23:41:26.509Z,6.22
2022-10-02T23:44:05.544Z,6.88
2022-10-02T23:46:56.331Z,6.75
2022-10-02T23:49:35.275Z,6.85
2022-10-02T23:52:28.195Z,6.03
2022-10-02T23:55:30.458Z,6.68
2022-10-02T23:58:13.421Z,6.60
